sensor_id;sensor_type;location;lat;lon;timestamp;P1;durP1;ratioP1;P2;durP2;ratioP2
62796;SDS011;48839;48.546;-4.178;2023-03-13T00:02:03;23.02;;;6.50;;
62796;SDS011;48839;48.546;-4.178;2023-03-13T00:04:29;25.45;;;5.55;;
62796;SDS011;48839;48.546;-4.178;2023-03-13T00:06:55;24.88;;;4.97;;
62796;SDS011;48839;48.546;-4.178;2023-03-13T00:09:21;25.45;;;5.25;;
62796;SDS011;48839;48.546;-4.178;2023-03-13T00:11:47;19.58;;;5.50;;
62796;SDS011;48839;48.546;-4.178;2023-03-13T00:14:13;12.80;;;4.38;;
62796;SDS011;48839;48.546;-4.178;2023-03-13T00:16:39;17.23;;;6.15;;
62796;SDS011;48839;48.546;-4.178;2023-03-13T00:19:06;16.50;;;4.70;;
62796;SDS011;48839;48.546;-4.178;2023-03-13T00:21:32;19.50;;;5.72;;
62796;SDS011;48839;48.546;-4.178;2023-03-13T00:23:59;26.25;;;6.32;;
62796;SDS011;48839;48.546;-4.178;2023-03-13T00:26:25;30.60;;;6.88;;
62796;SDS011;48839;48.546;-4.178;2023-03-13T00:28:52;34.63;;;6.72;;
62796;SDS011;48839;48.546;-4.178;2023-03-13T00:31:20;32.15;;;7.70;;
62796;SDS011;48839;48.546;-4.178;2023-03-13T00:33:48;32.75;;;9.63;;
62796;SDS011;48839;48.546;-4.178;2023-03-13T00:38:40;33.60;;;8.23;;
62796;SDS011;48839;48.546;-4.178;2023-03-13T00:41:11;19.02;;;8.50;;
62796;SDS011;48839;48.546;-4.178;2023-03-13T00:43:38;20.27;;;7.13;;
62796;SDS011;48839;48.546;-4.178;2023-03-13T00:46:04;16.48;;;5.70;;
62796;SDS011;48839;48.546;-4.178;2023-03-13T00:48:30;20.38;;;6.63;;
62796;SDS011;48839;48.546;-4.178;2023-03-13T00:50:57;22.00;;;5.05;;
62796;SDS011;48839;48.546;-4.178;2023-03-13T00:53:23;27.10;;;6.93;;
62796;SDS011;48839;48.546;-4.178;2023-03-13T00:55:56;28.02;;;9.75;;
62796;SDS011;48839;48.546;-4.178;2023-03-13T01:00:49;28.33;;;8.77;;
62796;SDS011;48839;48.546;-4.178;2023-03-13T01:03:15;24.58;;;7.25;;
62796;SDS011;48839;48.546;-4.178;2023-03-13T01:05:41;37.60;;;10.05;;
62796;SDS011;48839;48.546;-4.178;2023-03-13T01:08:07;26.33;;;6.75;;
62796;SDS011;48839;48.546;-4.178;2023-03-13T01:10:33;11.45;;;4.65;;
62796;SDS011;48839;48.546;-4.178;2023-03-13T01:12:59;12.88;;;5.57;;
62796;SDS011;48839;48.546;-4.178;2023-03-13T01:15:25;13.55;;;3.38;;
62796;SDS011;48839;48.546;-4.178;2023-03-13T01:17:51;11.98;;;3.85;;
62796;SDS011;48839;48.546;-4.178;2023-03-13T01:20:17;14.45;;;3.53;;
62796;SDS011;48839;48.546;-4.178;2023-03-13T01:22:43;15.52;;;4.07;;
62796;SDS011;48839;48.546;-4.178;2023-03-13T01:25:09;14.82;;;4.05;;
62796;SDS011;48839;48.546;-4.178;2023-03-13T01:27:35;12.13;;;3.60;;
62796;SDS011;48839;48.546;-4.178;2023-03-13T01:30:01;14.35;;;2.97;;
62796;SDS011;48839;48.546;-4.178;2023-03-13T01:32:27;12.23;;;3.55;;
62796;SDS011;48839;48.546;-4.178;2023-03-13T01:34:53;11.68;;;3.58;;
62796;SDS011;48839;48.546;-4.178;2023-03-13T01:37:19;12.13;;;3.90;;
62796;SDS011;48839;48.546;-4.178;2023-03-13T01:39:45;17.63;;;3.85;;
62796;SDS011;48839;48.546;-4.178;2023-03-13T01:42:11;19.35;;;3.88;;
62796;SDS011;48839;48.546;-4.178;2023-03-13T01:44:59;17.63;;;3.72;;
62796;SDS011;48839;48.546;-4.178;2023-03-13T01:47:24;23.73;;;4.88;;
62796;SDS011;48839;48.546;-4.178;2023-03-13T01:49:50;15.07;;;4.10;;
62796;SDS011;48839;48.546;-4.178;2023-03-13T01:52:19;24.38;;;4.60;;
62796;SDS011;48839;48.546;-4.178;2023-03-13T01:54:56;20.63;;;4.32;;
62796;SDS011;48839;48.546;-4.178;2023-03-13T01:57:24;22.10;;;5.70;;
62796;SDS011;48839;48.546;-4.178;2023-03-13T01:59:52;19.35;;;4.90;;
62796;SDS011;48839;48.546;-4.178;2023-03-13T02:02:19;21.10;;;4.85;;
62796;SDS011;48839;48.546;-4.178;2023-03-13T02:04:47;25.67;;;4.88;;
62796;SDS011;48839;48.546;-4.178;2023-03-13T02:07:16;22.27;;;5.60;;
62796;SDS011;48839;48.546;-4.178;2023-03-13T02:09:43;30.83;;;5.75;;
62796;SDS011;48839;48.546;-4.178;2023-03-13T02:12:14;25.38;;;5.25;;
62796;SDS011;48839;48.546;-4.178;2023-03-13T02:14:42;19.20;;;5.00;;
62796;SDS011;48839;48.546;-4.178;2023-03-13T02:17:09;26.10;;;4.47;;
62796;SDS011;48839;48.546;-4.178;2023-03-13T02:19:42;25.38;;;4.63;;
62796;SDS011;48839;48.546;-4.178;2023-03-13T02:27:30;24.48;;;5.15;;
62796;SDS011;48839;48.546;-4.178;2023-03-13T02:29:56;19.52;;;5.00;;
62796;SDS011;48839;48.546;-4.178;2023-03-13T02:32:22;26.48;;;6.03;;
62796;SDS011;48839;48.546;-4.178;2023-03-13T02:34:49;17.30;;;4.28;;
62796;SDS011;48839;48.546;-4.178;2023-03-13T02:37:17;30.95;;;5.28;;
62796;SDS011;48839;48.546;-4.178;2023-03-13T02:39:45;19.95;;;5.43;;
62796;SDS011;48839;48.546;-4.178;2023-03-13T02:42:13;27.50;;;5.32;;
62796;SDS011;48839;48.546;-4.178;2023-03-13T02:44:40;23.88;;;4.45;;
62796;SDS011;48839;48.546;-4.178;2023-03-13T02:47:08;19.27;;;4.15;;
62796;SDS011;48839;48.546;-4.178;2023-03-13T02:49:34;18.50;;;3.72;;
62796;SDS011;48839;48.546;-4.178;2023-03-13T02:52:07;14.25;;;3.33;;
62796;SDS011;48839;48.546;-4.178;2023-03-13T02:54:34;22.25;;;4.88;;
62796;SDS011;48839;48.546;-4.178;2023-03-13T02:57:02;18.48;;;4.10;;
62796;SDS011;48839;48.546;-4.178;2023-03-13T02:59:28;16.10;;;4.30;;
62796;SDS011;48839;48.546;-4.178;2023-03-13T03:01:55;19.23;;;3.72;;
62796;SDS011;48839;48.546;-4.178;2023-03-13T03:04:21;17.52;;;4.95;;
62796;SDS011;48839;48.546;-4.178;2023-03-13T03:06:47;18.48;;;4.00;;
62796;SDS011;48839;48.546;-4.178;2023-03-13T03:09:14;20.00;;;3.92;;
62796;SDS011;48839;48.546;-4.178;2023-03-13T03:11:40;19.02;;;5.25;;
62796;SDS011;48839;48.546;-4.178;2023-03-13T03:14:06;22.17;;;4.22;;
62796;SDS011;48839;48.546;-4.178;2023-03-13T03:16:32;24.35;;;4.60;;
62796;SDS011;48839;48.546;-4.178;2023-03-13T03:18:58;21.00;;;4.03;;
62796;SDS011;48839;48.546;-4.178;2023-03-13T03:21:24;24.65;;;4.90;;
62796;SDS011;48839;48.546;-4.178;2023-03-13T03:23:50;30.13;;;6.00;;
62796;SDS011;48839;48.546;-4.178;2023-03-13T03:26:16;35.58;;;6.03;;
62796;SDS011;48839;48.546;-4.178;2023-03-13T03:28:43;30.92;;;5.55;;
62796;SDS011;48839;48.546;-4.178;2023-03-13T03:31:10;24.67;;;6.00;;
62796;SDS011;48839;48.546;-4.178;2023-03-13T03:33:36;28.92;;;5.65;;
62796;SDS011;48839;48.546;-4.178;2023-03-13T03:36:03;28.27;;;6.22;;
62796;SDS011;48839;48.546;-4.178;2023-03-13T03:38:30;32.78;;;4.82;;
62796;SDS011;48839;48.546;-4.178;2023-03-13T03:40:56;25.58;;;7.45;;
62796;SDS011;48839;48.546;-4.178;2023-03-13T03:43:23;28.55;;;6.10;;
62796;SDS011;48839;48.546;-4.178;2023-03-13T03:45:49;27.02;;;5.13;;
62796;SDS011;48839;48.546;-4.178;2023-03-13T03:48:15;24.48;;;5.45;;
62796;SDS011;48839;48.546;-4.178;2023-03-13T03:50:41;29.85;;;6.20;;
62796;SDS011;48839;48.546;-4.178;2023-03-13T03:53:07;23.42;;;4.85;;
62796;SDS011;48839;48.546;-4.178;2023-03-13T03:55:33;29.42;;;6.65;;
62796;SDS011;48839;48.546;-4.178;2023-03-13T03:57:59;32.10;;;6.80;;
62796;SDS011;48839;48.546;-4.178;2023-03-13T04:00:25;26.02;;;5.00;;
62796;SDS011;48839;48.546;-4.178;2023-03-13T04:02:52;32.97;;;5.95;;
62796;SDS011;48839;48.546;-4.178;2023-03-13T04:05:18;36.60;;;6.32;;
62796;SDS011;48839;48.546;-4.178;2023-03-13T04:07:44;27.08;;;5.22;;
62796;SDS011;48839;48.546;-4.178;2023-03-13T04:10:10;41.72;;;6.18;;
62796;SDS011;48839;48.546;-4.178;2023-03-13T04:12:36;29.08;;;7.43;;
62796;SDS011;48839;48.546;-4.178;2023-03-13T04:15:02;39.88;;;6.25;;
62796;SDS011;48839;48.546;-4.178;2023-03-13T04:17:28;27.20;;;5.65;;
62796;SDS011;48839;48.546;-4.178;2023-03-13T04:19:55;37.58;;;6.55;;
62796;SDS011;48839;48.546;-4.178;2023-03-13T04:22:21;35.15;;;7.70;;
62796;SDS011;48839;48.546;-4.178;2023-03-13T04:24:47;21.52;;;5.45;;
62796;SDS011;48839;48.546;-4.178;2023-03-13T04:27:13;26.17;;;6.40;;
62796;SDS011;48839;48.546;-4.178;2023-03-13T04:29:39;30.30;;;6.80;;
62796;SDS011;48839;48.546;-4.178;2023-03-13T04:32:05;39.20;;;9.60;;
62796;SDS011;48839;48.546;-4.178;2023-03-13T04:34:31;34.33;;;9.60;;
62796;SDS011;48839;48.546;-4.178;2023-03-13T04:36:57;38.85;;;8.98;;
62796;SDS011;48839;48.546;-4.178;2023-03-13T04:39:23;39.25;;;7.85;;
62796;SDS011;48839;48.546;-4.178;2023-03-13T04:41:53;47.28;;;9.88;;
62796;SDS011;48839;48.546;-4.178;2023-03-13T04:44:19;45.58;;;12.40;;
62796;SDS011;48839;48.546;-4.178;2023-03-13T04:46:46;42.72;;;12.07;;
62796;SDS011;48839;48.546;-4.178;2023-03-13T04:49:12;69.88;;;17.45;;
62796;SDS011;48839;48.546;-4.178;2023-03-13T04:51:42;50.92;;;13.95;;
62796;SDS011;48839;48.546;-4.178;2023-03-13T04:54:08;47.92;;;13.25;;
62796;SDS011;48839;48.546;-4.178;2023-03-13T04:56:34;59.70;;;17.60;;
62796;SDS011;48839;48.546;-4.178;2023-03-13T04:59:00;44.83;;;9.05;;
62796;SDS011;48839;48.546;-4.178;2023-03-13T05:01:26;33.67;;;7.35;;
62796;SDS011;48839;48.546;-4.178;2023-03-13T05:03:52;42.92;;;8.75;;
62796;SDS011;48839;48.546;-4.178;2023-03-13T05:06:18;42.80;;;8.15;;
62796;SDS011;48839;48.546;-4.178;2023-03-13T05:08:44;35.55;;;6.75;;
62796;SDS011;48839;48.546;-4.178;2023-03-13T05:11:10;27.52;;;5.13;;
62796;SDS011;48839;48.546;-4.178;2023-03-13T05:13:36;32.60;;;7.30;;
62796;SDS011;48839;48.546;-4.178;2023-03-13T05:16:02;32.35;;;6.90;;
62796;SDS011;48839;48.546;-4.178;2023-03-13T05:18:28;46.92;;;7.13;;
62796;SDS011;48839;48.546;-4.178;2023-03-13T05:20:55;31.42;;;6.13;;
62796;SDS011;48839;48.546;-4.178;2023-03-13T05:23:21;34.20;;;7.22;;
62796;SDS011;48839;48.546;-4.178;2023-03-13T05:25:47;26.40;;;5.55;;
62796;SDS011;48839;48.546;-4.178;2023-03-13T05:28:13;35.47;;;6.57;;
62796;SDS011;48839;48.546;-4.178;2023-03-13T05:30:39;30.40;;;5.95;;
62796;SDS011;48839;48.546;-4.178;2023-03-13T05:33:05;28.77;;;5.10;;
62796;SDS011;48839;48.546;-4.178;2023-03-13T05:35:31;37.70;;;7.60;;
62796;SDS011;48839;48.546;-4.178;2023-03-13T05:37:57;46.67;;;6.07;;
62796;SDS011;48839;48.546;-4.178;2023-03-13T05:40:23;39.25;;;5.78;;
62796;SDS011;48839;48.546;-4.178;2023-03-13T05:42:49;30.20;;;5.45;;
62796;SDS011;48839;48.546;-4.178;2023-03-13T05:45:15;22.75;;;5.82;;
62796;SDS011;48839;48.546;-4.178;2023-03-13T05:47:41;22.80;;;6.30;;
62796;SDS011;48839;48.546;-4.178;2023-03-13T05:50:07;40.30;;;5.82;;
62796;SDS011;48839;48.546;-4.178;2023-03-13T05:52:33;37.83;;;6.75;;
62796;SDS011;48839;48.546;-4.178;2023-03-13T05:54:59;30.10;;;6.75;;
62796;SDS011;48839;48.546;-4.178;2023-03-13T05:57:25;41.45;;;6.40;;
62796;SDS011;48839;48.546;-4.178;2023-03-13T05:59:51;40.38;;;7.43;;
62796;SDS011;48839;48.546;-4.178;2023-03-13T06:02:17;36.75;;;6.25;;
62796;SDS011;48839;48.546;-4.178;2023-03-13T06:04:44;43.22;;;6.22;;
62796;SDS011;48839;48.546;-4.178;2023-03-13T06:07:10;39.53;;;7.63;;
62796;SDS011;48839;48.546;-4.178;2023-03-13T06:09:36;27.73;;;5.47;;
62796;SDS011;48839;48.546;-4.178;2023-03-13T06:12:05;39.15;;;7.60;;
62796;SDS011;48839;48.546;-4.178;2023-03-13T06:14:31;29.92;;;6.07;;
62796;SDS011;48839;48.546;-4.178;2023-03-13T06:16:57;30.55;;;5.90;;
62796;SDS011;48839;48.546;-4.178;2023-03-13T06:19:23;37.65;;;8.02;;
62796;SDS011;48839;48.546;-4.178;2023-03-13T06:21:49;24.70;;;6.90;;
62796;SDS011;48839;48.546;-4.178;2023-03-13T06:24:15;42.15;;;6.80;;
62796;SDS011;48839;48.546;-4.178;2023-03-13T06:26:42;38.28;;;7.10;;
62796;SDS011;48839;48.546;-4.178;2023-03-13T06:29:08;34.00;;;6.07;;
62796;SDS011;48839;48.546;-4.178;2023-03-13T06:31:34;37.25;;;6.93;;
62796;SDS011;48839;48.546;-4.178;2023-03-13T06:34:00;39.08;;;6.70;;
62796;SDS011;48839;48.546;-4.178;2023-03-13T06:36:26;29.65;;;6.57;;
62796;SDS011;48839;48.546;-4.178;2023-03-13T06:38:52;38.65;;;6.43;;
62796;SDS011;48839;48.546;-4.178;2023-03-13T06:41:18;24.25;;;4.80;;
62796;SDS011;48839;48.546;-4.178;2023-03-13T06:43:44;44.90;;;7.00;;
62796;SDS011;48839;48.546;-4.178;2023-03-13T06:46:14;33.22;;;6.78;;
62796;SDS011;48839;48.546;-4.178;2023-03-13T06:48:41;36.00;;;6.65;;
62796;SDS011;48839;48.546;-4.178;2023-03-13T06:51:11;39.08;;;8.63;;
62796;SDS011;48839;48.546;-4.178;2023-03-13T06:53:38;39.47;;;8.57;;
62796;SDS011;48839;48.546;-4.178;2023-03-13T06:56:04;26.42;;;5.55;;
62796;SDS011;48839;48.546;-4.178;2023-03-13T06:58:30;38.47;;;6.38;;
62796;SDS011;48839;48.546;-4.178;2023-03-13T07:00:56;35.95;;;6.28;;
62796;SDS011;48839;48.546;-4.178;2023-03-13T07:03:22;39.92;;;6.18;;
62796;SDS011;48839;48.546;-4.178;2023-03-13T07:05:53;23.38;;;5.45;;
62796;SDS011;48839;48.546;-4.178;2023-03-13T07:08:19;27.40;;;6.65;;
62796;SDS011;48839;48.546;-4.178;2023-03-13T07:10:45;33.63;;;6.13;;
62796;SDS011;48839;48.546;-4.178;2023-03-13T07:13:15;31.73;;;6.60;;
62796;SDS011;48839;48.546;-4.178;2023-03-13T07:15:42;32.97;;;6.05;;
62796;SDS011;48839;48.546;-4.178;2023-03-13T07:18:08;35.95;;;6.60;;
62796;SDS011;48839;48.546;-4.178;2023-03-13T07:20:34;40.80;;;6.97;;
62796;SDS011;48839;48.546;-4.178;2023-03-13T07:23:00;38.10;;;7.00;;
62796;SDS011;48839;48.546;-4.178;2023-03-13T07:25:26;36.65;;;7.45;;
62796;SDS011;48839;48.546;-4.178;2023-03-13T07:27:52;41.22;;;7.65;;
62796;SDS011;48839;48.546;-4.178;2023-03-13T07:30:18;34.78;;;6.68;;
62796;SDS011;48839;48.546;-4.178;2023-03-13T07:32:44;40.45;;;8.38;;
62796;SDS011;48839;48.546;-4.178;2023-03-13T07:35:10;45.50;;;10.32;;
62796;SDS011;48839;48.546;-4.178;2023-03-13T07:37:36;27.77;;;7.07;;
62796;SDS011;48839;48.546;-4.178;2023-03-13T07:40:03;42.10;;;6.32;;
62796;SDS011;48839;48.546;-4.178;2023-03-13T07:42:29;41.25;;;7.55;;
62796;SDS011;48839;48.546;-4.178;2023-03-13T07:44:55;33.35;;;6.78;;
62796;SDS011;48839;48.546;-4.178;2023-03-13T07:47:21;36.60;;;6.15;;
62796;SDS011;48839;48.546;-4.178;2023-03-13T07:49:47;34.00;;;6.70;;
62796;SDS011;48839;48.546;-4.178;2023-03-13T07:52:13;41.30;;;7.70;;
62796;SDS011;48839;48.546;-4.178;2023-03-13T07:54:39;44.83;;;7.18;;
62796;SDS011;48839;48.546;-4.178;2023-03-13T07:57:05;35.42;;;6.95;;
62796;SDS011;48839;48.546;-4.178;2023-03-13T07:59:31;30.25;;;8.13;;
62796;SDS011;48839;48.546;-4.178;2023-03-13T08:01:57;32.20;;;6.88;;
62796;SDS011;48839;48.546;-4.178;2023-03-13T08:04:23;37.67;;;8.18;;
62796;SDS011;48839;48.546;-4.178;2023-03-13T08:06:49;42.17;;;7.28;;
62796;SDS011;48839;48.546;-4.178;2023-03-13T08:09:16;29.13;;;6.15;;
62796;SDS011;48839;48.546;-4.178;2023-03-13T08:11:42;48.85;;;7.05;;
62796;SDS011;48839;48.546;-4.178;2023-03-13T08:14:11;39.70;;;6.72;;
62796;SDS011;48839;48.546;-4.178;2023-03-13T08:16:37;37.88;;;6.50;;
62796;SDS011;48839;48.546;-4.178;2023-03-13T08:19:04;26.10;;;6.85;;
62796;SDS011;48839;48.546;-4.178;2023-03-13T08:21:31;43.63;;;7.45;;
62796;SDS011;48839;48.546;-4.178;2023-03-13T08:23:58;40.50;;;6.38;;
62796;SDS011;48839;48.546;-4.178;2023-03-13T08:26:26;35.22;;;5.50;;
62796;SDS011;48839;48.546;-4.178;2023-03-13T08:28:53;35.88;;;7.22;;
62796;SDS011;48839;48.546;-4.178;2023-03-13T08:31:53;35.08;;;5.60;;
62796;SDS011;48839;48.546;-4.178;2023-03-13T08:34:13;27.63;;;5.65;;
62796;SDS011;48839;48.546;-4.178;2023-03-13T08:36:39;26.23;;;4.90;;
62796;SDS011;48839;48.546;-4.178;2023-03-13T08:39:06;30.92;;;6.68;;
62796;SDS011;48839;48.546;-4.178;2023-03-13T08:41:35;34.08;;;6.53;;
62796;SDS011;48839;48.546;-4.178;2023-03-13T08:44:04;39.95;;;8.60;;
62796;SDS011;48839;48.546;-4.178;2023-03-13T08:46:31;43.38;;;9.48;;
62796;SDS011;48839;48.546;-4.178;2023-03-13T08:48:57;40.53;;;10.35;;
62796;SDS011;48839;48.546;-4.178;2023-03-13T08:51:24;47.80;;;12.40;;
62796;SDS011;48839;48.546;-4.178;2023-03-13T08:53:51;43.05;;;7.93;;
62796;SDS011;48839;48.546;-4.178;2023-03-13T08:56:18;28.77;;;6.63;;
62796;SDS011;48839;48.546;-4.178;2023-03-13T08:58:48;49.33;;;11.30;;
62796;SDS011;48839;48.546;-4.178;2023-03-13T09:01:14;37.20;;;6.82;;
62796;SDS011;48839;48.546;-4.178;2023-03-13T09:03:40;40.78;;;7.63;;
62796;SDS011;48839;48.546;-4.178;2023-03-13T09:06:07;33.58;;;7.97;;
62796;SDS011;48839;48.546;-4.178;2023-03-13T09:08:34;30.45;;;6.10;;
62796;SDS011;48839;48.546;-4.178;2023-03-13T09:11:01;32.08;;;6.47;;
62796;SDS011;48839;48.546;-4.178;2023-03-13T09:13:28;35.22;;;6.60;;
62796;SDS011;48839;48.546;-4.178;2023-03-13T09:15:58;33.75;;;6.20;;
62796;SDS011;48839;48.546;-4.178;2023-03-13T09:18:24;35.90;;;6.63;;
62796;SDS011;48839;48.546;-4.178;2023-03-13T09:20:51;38.47;;;6.28;;
62796;SDS011;48839;48.546;-4.178;2023-03-13T09:23:17;30.85;;;6.07;;
62796;SDS011;48839;48.546;-4.178;2023-03-13T09:25:43;42.40;;;6.82;;
62796;SDS011;48839;48.546;-4.178;2023-03-13T09:28:09;38.05;;;6.63;;
62796;SDS011;48839;48.546;-4.178;2023-03-13T09:30:36;42.03;;;8.07;;
62796;SDS011;48839;48.546;-4.178;2023-03-13T09:33:02;37.35;;;6.22;;
62796;SDS011;48839;48.546;-4.178;2023-03-13T09:35:28;35.72;;;7.13;;
62796;SDS011;48839;48.546;-4.178;2023-03-13T09:37:54;38.60;;;6.85;;
62796;SDS011;48839;48.546;-4.178;2023-03-13T09:40:21;40.38;;;6.90;;
62796;SDS011;48839;48.546;-4.178;2023-03-13T09:42:48;29.42;;;5.90;;
62796;SDS011;48839;48.546;-4.178;2023-03-13T09:45:32;31.88;;;7.43;;
62796;SDS011;48839;48.546;-4.178;2023-03-13T09:50:58;34.33;;;6.40;;
62796;SDS011;48839;48.546;-4.178;2023-03-13T09:53:30;34.03;;;6.03;;
62796;SDS011;48839;48.546;-4.178;2023-03-13T09:55:57;23.70;;;4.72;;
62796;SDS011;48839;48.546;-4.178;2023-03-13T09:58:24;29.45;;;5.53;;
62796;SDS011;48839;48.546;-4.178;2023-03-13T10:00:58;24.10;;;5.15;;
62796;SDS011;48839;48.546;-4.178;2023-03-13T10:03:26;28.45;;;5.47;;
62796;SDS011;48839;48.546;-4.178;2023-03-13T10:05:57;34.67;;;5.30;;
62796;SDS011;48839;48.546;-4.178;2023-03-13T10:08:25;35.17;;;6.38;;
62796;SDS011;48839;48.546;-4.178;2023-03-13T10:10:56;27.75;;;6.95;;
62796;SDS011;48839;48.546;-4.178;2023-03-13T10:16:08;37.75;;;6.68;;
62796;SDS011;48839;48.546;-4.178;2023-03-13T10:18:35;39.97;;;9.18;;
62796;SDS011;48839;48.546;-4.178;2023-03-13T10:21:11;40.22;;;12.60;;
62796;SDS011;48839;48.546;-4.178;2023-03-13T10:23:40;29.17;;;6.78;;
62796;SDS011;48839;48.546;-4.178;2023-03-13T10:26:14;30.58;;;6.68;;
62796;SDS011;48839;48.546;-4.178;2023-03-13T10:28:41;23.50;;;4.75;;
62796;SDS011;48839;48.546;-4.178;2023-03-13T10:31:13;36.47;;;6.43;;
62796;SDS011;48839;48.546;-4.178;2023-03-13T10:33:42;32.75;;;4.95;;
62796;SDS011;48839;48.546;-4.178;2023-03-13T10:36:12;29.83;;;5.47;;
62796;SDS011;48839;48.546;-4.178;2023-03-13T10:38:51;32.03;;;5.07;;
62796;SDS011;48839;48.546;-4.178;2023-03-13T10:41:27;29.13;;;6.78;;
62796;SDS011;48839;48.546;-4.178;2023-03-13T10:43:58;29.05;;;5.78;;
62796;SDS011;48839;48.546;-4.178;2023-03-13T10:46:25;29.48;;;5.88;;
62796;SDS011;48839;48.546;-4.178;2023-03-13T10:48:52;34.15;;;6.75;;
62796;SDS011;48839;48.546;-4.178;2023-03-13T10:51:20;30.33;;;6.97;;
62796;SDS011;48839;48.546;-4.178;2023-03-13T10:53:46;30.60;;;5.95;;
62796;SDS011;48839;48.546;-4.178;2023-03-13T10:56:15;28.33;;;5.85;;
62796;SDS011;48839;48.546;-4.178;2023-03-13T10:58:45;35.35;;;5.72;;
62796;SDS011;48839;48.546;-4.178;2023-03-13T11:01:25;29.88;;;5.30;;
62796;SDS011;48839;48.546;-4.178;2023-03-13T11:03:54;20.42;;;5.50;;
62796;SDS011;48839;48.546;-4.178;2023-03-13T11:06:24;25.85;;;5.18;;
62796;SDS011;48839;48.546;-4.178;2023-03-13T11:09:04;30.83;;;5.95;;
62796;SDS011;48839;48.546;-4.178;2023-03-13T11:11:49;32.33;;;5.53;;
62796;SDS011;48839;48.546;-4.178;2023-03-13T11:14:17;32.72;;;6.78;;
62796;SDS011;48839;48.546;-4.178;2023-03-13T11:16:53;28.52;;;6.10;;
62796;SDS011;48839;48.546;-4.178;2023-03-13T11:26:58;30.73;;;6.28;;
62796;SDS011;48839;48.546;-4.178;2023-03-13T11:32:03;29.42;;;4.85;;
62796;SDS011;48839;48.546;-4.178;2023-03-13T11:37:02;20.90;;;4.68;;
62796;SDS011;48839;48.546;-4.178;2023-03-13T11:52:23;30.40;;;5.78;;
62796;SDS011;48839;48.546;-4.178;2023-03-13T12:00:21;29.70;;;4.57;;
62796;SDS011;48839;48.546;-4.178;2023-03-13T12:05:37;31.20;;;4.65;;
62796;SDS011;48839;48.546;-4.178;2023-03-13T12:08:06;27.92;;;4.50;;
62796;SDS011;48839;48.546;-4.178;2023-03-13T12:10:36;31.67;;;5.93;;
62796;SDS011;48839;48.546;-4.178;2023-03-13T12:15:39;33.63;;;7.18;;
62796;SDS011;48839;48.546;-4.178;2023-03-13T12:18:19;36.92;;;5.75;;
62796;SDS011;48839;48.546;-4.178;2023-03-13T12:26:18;29.90;;;5.97;;
62796;SDS011;48839;48.546;-4.178;2023-03-13T12:28:56;34.75;;;5.43;;
62796;SDS011;48839;48.546;-4.178;2023-03-13T12:31:33;36.50;;;5.70;;
62796;SDS011;48839;48.546;-4.178;2023-03-13T12:36:35;25.13;;;4.90;;
62796;SDS011;48839;48.546;-4.178;2023-03-13T12:41:53;35.88;;;5.85;;
62796;SDS011;48839;48.546;-4.178;2023-03-13T12:44:22;30.55;;;5.03;;
62796;SDS011;48839;48.546;-4.178;2023-03-13T12:52:21;19.75;;;4.78;;
62796;SDS011;48839;48.546;-4.178;2023-03-13T12:59:52;24.92;;;5.75;;
62796;SDS011;48839;48.546;-4.178;2023-03-13T13:02:23;38.55;;;5.90;;
62796;SDS011;48839;48.546;-4.178;2023-03-13T13:04:50;26.75;;;6.38;;
62796;SDS011;48839;48.546;-4.178;2023-03-13T13:07:25;22.15;;;5.50;;
62796;SDS011;48839;48.546;-4.178;2023-03-13T13:09:59;26.02;;;4.90;;
62796;SDS011;48839;48.546;-4.178;2023-03-13T13:12:25;24.95;;;5.10;;
62796;SDS011;48839;48.546;-4.178;2023-03-13T13:17:22;26.48;;;4.93;;
62796;SDS011;48839;48.546;-4.178;2023-03-13T13:19:48;26.13;;;4.53;;
62796;SDS011;48839;48.546;-4.178;2023-03-13T13:29:59;36.90;;;4.70;;
62796;SDS011;48839;48.546;-4.178;2023-03-13T13:32:29;12.15;;;2.28;;
62796;SDS011;48839;48.546;-4.178;2023-03-13T13:35:03;14.00;;;2.97;;
62796;SDS011;48839;48.546;-4.178;2023-03-13T13:37:30;9.68;;;2.47;;
62796;SDS011;48839;48.546;-4.178;2023-03-13T13:42:45;8.25;;;2.03;;
62796;SDS011;48839;48.546;-4.178;2023-03-13T13:47:45;10.43;;;2.42;;
62796;SDS011;48839;48.546;-4.178;2023-03-13T13:50:21;15.32;;;2.00;;
62796;SDS011;48839;48.546;-4.178;2023-03-13T13:52:47;9.52;;;2.20;;
62796;SDS011;48839;48.546;-4.178;2023-03-13T13:55:40;12.40;;;2.10;;
62796;SDS011;48839;48.546;-4.178;2023-03-13T14:00:37;8.95;;;1.90;;
62796;SDS011;48839;48.546;-4.178;2023-03-13T14:05:43;9.80;;;1.63;;
62796;SDS011;48839;48.546;-4.178;2023-03-13T14:10:41;10.63;;;2.08;;
62796;SDS011;48839;48.546;-4.178;2023-03-13T14:13:14;19.92;;;2.80;;
62796;SDS011;48839;48.546;-4.178;2023-03-13T14:15:45;15.48;;;2.65;;
62796;SDS011;48839;48.546;-4.178;2023-03-13T14:20:38;15.63;;;2.75;;
62796;SDS011;48839;48.546;-4.178;2023-03-13T14:23:16;17.50;;;2.10;;
62796;SDS011;48839;48.546;-4.178;2023-03-13T14:25:52;19.80;;;3.70;;
62796;SDS011;48839;48.546;-4.178;2023-03-13T14:28:26;18.23;;;2.72;;
62796;SDS011;48839;48.546;-4.178;2023-03-13T14:30:53;13.60;;;2.33;;
62796;SDS011;48839;48.546;-4.178;2023-03-13T14:33:22;13.65;;;2.78;;
62796;SDS011;48839;48.546;-4.178;2023-03-13T14:35:49;14.10;;;2.45;;
62796;SDS011;48839;48.546;-4.178;2023-03-13T14:38:16;12.85;;;3.00;;
62796;SDS011;48839;48.546;-4.178;2023-03-13T14:40:42;15.32;;;3.47;;
62796;SDS011;48839;48.546;-4.178;2023-03-13T14:45:50;11.35;;;2.60;;
62796;SDS011;48839;48.546;-4.178;2023-03-13T14:50:46;16.92;;;3.20;;
62796;SDS011;48839;48.546;-4.178;2023-03-13T14:53:19;16.15;;;3.67;;
62796;SDS011;48839;48.546;-4.178;2023-03-13T14:55:45;17.83;;;3.35;;
62796;SDS011;48839;48.546;-4.178;2023-03-13T15:00:47;12.02;;;2.63;;
62796;SDS011;48839;48.546;-4.178;2023-03-13T15:05:49;10.38;;;2.88;;
62796;SDS011;48839;48.546;-4.178;2023-03-13T15:08:16;20.13;;;3.30;;
62796;SDS011;48839;48.546;-4.178;2023-03-13T15:10:43;17.73;;;2.75;;
62796;SDS011;48839;48.546;-4.178;2023-03-13T15:13:43;16.08;;;3.08;;
62796;SDS011;48839;48.546;-4.178;2023-03-13T15:16:02;11.95;;;2.45;;
62796;SDS011;48839;48.546;-4.178;2023-03-13T15:18:35;14.50;;;2.90;;
62796;SDS011;48839;48.546;-4.178;2023-03-13T15:23:41;15.40;;;2.92;;
62796;SDS011;48839;48.546;-4.178;2023-03-13T15:26:11;19.52;;;3.30;;
62796;SDS011;48839;48.546;-4.178;2023-03-13T15:28:37;17.48;;;3.05;;
62796;SDS011;48839;48.546;-4.178;2023-03-13T15:31:03;18.33;;;3.13;;
62796;SDS011;48839;48.546;-4.178;2023-03-13T15:33:29;15.38;;;3.05;;
62796;SDS011;48839;48.546;-4.178;2023-03-13T15:35:56;21.90;;;3.15;;
62796;SDS011;48839;48.546;-4.178;2023-03-13T15:38:23;18.63;;;4.03;;
62796;SDS011;48839;48.546;-4.178;2023-03-13T15:40:50;20.52;;;3.75;;
62796;SDS011;48839;48.546;-4.178;2023-03-13T15:43:16;17.73;;;3.33;;
62796;SDS011;48839;48.546;-4.178;2023-03-13T15:45:44;22.95;;;4.82;;
62796;SDS011;48839;48.546;-4.178;2023-03-13T15:48:18;15.32;;;3.75;;
62796;SDS011;48839;48.546;-4.178;2023-03-13T15:50:45;14.93;;;3.97;;
62796;SDS011;48839;48.546;-4.178;2023-03-13T15:53:18;19.35;;;3.97;;
62796;SDS011;48839;48.546;-4.178;2023-03-13T15:55:45;19.42;;;3.88;;
62796;SDS011;48839;48.546;-4.178;2023-03-13T15:58:12;21.55;;;3.40;;
62796;SDS011;48839;48.546;-4.178;2023-03-13T16:00:38;19.20;;;3.42;;
62796;SDS011;48839;48.546;-4.178;2023-03-13T16:03:04;21.50;;;3.13;;
62796;SDS011;48839;48.546;-4.178;2023-03-13T16:05:30;14.60;;;3.30;;
62796;SDS011;48839;48.546;-4.178;2023-03-13T16:07:56;19.70;;;3.53;;
62796;SDS011;48839;48.546;-4.178;2023-03-13T16:10:24;25.70;;;3.80;;
62796;SDS011;48839;48.546;-4.178;2023-03-13T16:12:50;29.73;;;4.35;;
62796;SDS011;48839;48.546;-4.178;2023-03-13T16:15:16;16.88;;;2.85;;
62796;SDS011;48839;48.546;-4.178;2023-03-13T16:17:42;19.13;;;3.88;;